sensor_id;sensor_type;location;lat;lon;timestamp;P1;durP1;ratioP1;P2;durP2;ratioP2
46767;SDS011;69007;48.978;18.066;2023-10-13T00:02:10;8.50;;;4.55;;
46767;SDS011;69007;48.978;18.066;2023-10-13T00:04:35;21.98;;;6.22;;
46767;SDS011;69007;48.978;18.066;2023-10-13T00:07:01;9.85;;;4.97;;
46767;SDS011;69007;48.978;18.066;2023-10-13T00:09:30;13.50;;;4.80;;
46767;SDS011;69007;48.978;18.066;2023-10-13T00:12:02;11.77;;;5.20;;
46767;SDS011;69007;48.978;18.066;2023-10-13T00:14:28;8.85;;;4.65;;
46767;SDS011;69007;48.978;18.066;2023-10-13T00:17:00;11.50;;;5.30;;
46767;SDS011;69007;48.978;18.066;2023-10-13T00:19:33;11.10;;;4.70;;
46767;SDS011;69007;48.978;18.066;2023-10-13T00:22:07;12.88;;;4.78;;
46767;SDS011;69007;48.978;18.066;2023-10-13T00:24:37;12.15;;;5.10;;
46767;SDS011;69007;48.978;18.066;2023-10-13T00:27:14;14.38;;;5.15;;
46767;SDS011;69007;48.978;18.066;2023-10-13T00:29:59;11.13;;;5.47;;
46767;SDS011;69007;48.978;18.066;2023-10-13T00:32:47;16.77;;;6.18;;
46767;SDS011;69007;48.978;18.066;2023-10-13T00:35:20;11.27;;;5.65;;
46767;SDS011;69007;48.978;18.066;2023-10-13T00:38:01;8.93;;;5.63;;
46767;SDS011;69007;48.978;18.066;2023-10-13T00:40:41;10.90;;;5.13;;
46767;SDS011;69007;48.978;18.066;2023-10-13T00:43:09;15.80;;;5.43;;
46767;SDS011;69007;48.978;18.066;2023-10-13T00:45:51;19.25;;;5.78;;
46767;SDS011;69007;48.978;18.066;2023-10-13T00:48:22;20.02;;;5.68;;
46767;SDS011;69007;48.978;18.066;2023-10-13T00:50:54;12.98;;;5.70;;
46767;SDS011;69007;48.978;18.066;2023-10-13T00:53:27;10.20;;;5.80;;
46767;SDS011;69007;48.978;18.066;2023-10-13T00:55:54;20.60;;;5.65;;
46767;SDS011;69007;48.978;18.066;2023-10-13T00:58:22;12.98;;;4.93;;
46767;SDS011;69007;48.978;18.066;2023-10-13T01:00:50;11.43;;;5.10;;
46767;SDS011;69007;48.978;18.066;2023-10-13T01:03:22;15.05;;;5.28;;
46767;SDS011;69007;48.978;18.066;2023-10-13T01:05:52;15.77;;;5.53;;
46767;SDS011;69007;48.978;18.066;2023-10-13T01:08:30;12.90;;;4.88;;
46767;SDS011;69007;48.978;18.066;2023-10-13T01:10:59;14.68;;;5.78;;
46767;SDS011;69007;48.978;18.066;2023-10-13T01:13:25;13.23;;;5.80;;
46767;SDS011;69007;48.978;18.066;2023-10-13T01:15:52;18.00;;;5.68;;
46767;SDS011;69007;48.978;18.066;2023-10-13T01:18:17;10.98;;;5.57;;
46767;SDS011;69007;48.978;18.066;2023-10-13T01:20:43;14.75;;;5.05;;
46767;SDS011;69007;48.978;18.066;2023-10-13T01:23:17;13.43;;;5.78;;
46767;SDS011;69007;48.978;18.066;2023-10-13T01:25:49;13.65;;;4.50;;
46767;SDS011;69007;48.978;18.066;2023-10-13T01:28:15;7.88;;;4.70;;
46767;SDS011;69007;48.978;18.066;2023-10-13T01:30:42;12.95;;;5.10;;
46767;SDS011;69007;48.978;18.066;2023-10-13T01:33:08;15.35;;;5.07;;
46767;SDS011;69007;48.978;18.066;2023-10-13T01:35:35;11.45;;;5.63;;
46767;SDS011;69007;48.978;18.066;2023-10-13T01:38:07;16.35;;;5.40;;
46767;SDS011;69007;48.978;18.066;2023-10-13T01:40:33;8.68;;;4.93;;
46767;SDS011;69007;48.978;18.066;2023-10-13T01:43:00;15.70;;;5.75;;
46767;SDS011;69007;48.978;18.066;2023-10-13T01:45:25;10.50;;;4.97;;
46767;SDS011;69007;48.978;18.066;2023-10-13T01:47:54;12.55;;;4.93;;
46767;SDS011;69007;48.978;18.066;2023-10-13T01:50:20;11.52;;;6.15;;
46767;SDS011;69007;48.978;18.066;2023-10-13T01:52:53;12.82;;;5.95;;
46767;SDS011;69007;48.978;18.066;2023-10-13T01:55:37;14.50;;;5.97;;
46767;SDS011;69007;48.978;18.066;2023-10-13T01:58:15;12.75;;;5.15;;
46767;SDS011;69007;48.978;18.066;2023-10-13T02:00:44;13.57;;;5.88;;
46767;SDS011;69007;48.978;18.066;2023-10-13T02:03:12;11.35;;;5.97;;
46767;SDS011;69007;48.978;18.066;2023-10-13T02:05:45;15.25;;;4.93;;
46767;SDS011;69007;48.978;18.066;2023-10-13T02:08:18;18.35;;;5.55;;
46767;SDS011;69007;48.978;18.066;2023-10-13T02:10:48;13.23;;;5.90;;
46767;SDS011;69007;48.978;18.066;2023-10-13T02:13:18;18.17;;;5.47;;
46767;SDS011;69007;48.978;18.066;2023-10-13T02:15:45;9.20;;;4.65;;
46767;SDS011;69007;48.978;18.066;2023-10-13T02:18:16;11.57;;;6.45;;
46767;SDS011;69007;48.978;18.066;2023-10-13T02:20:50;14.57;;;5.25;;
46767;SDS011;69007;48.978;18.066;2023-10-13T02:23:20;20.50;;;6.30;;
46767;SDS011;69007;48.978;18.066;2023-10-13T02:25:47;13.35;;;5.72;;
46767;SDS011;69007;48.978;18.066;2023-10-13T02:28:12;18.42;;;5.80;;
46767;SDS011;69007;48.978;18.066;2023-10-13T02:30:39;10.85;;;5.55;;
46767;SDS011;69007;48.978;18.066;2023-10-13T02:33:13;13.07;;;6.20;;
46767;SDS011;69007;48.978;18.066;2023-10-13T02:35:45;15.70;;;6.97;;
46767;SDS011;69007;48.978;18.066;2023-10-13T02:38:20;15.10;;;6.05;;
46767;SDS011;69007;48.978;18.066;2023-10-13T02:41:00;11.90;;;5.63;;
46767;SDS011;69007;48.978;18.066;2023-10-13T02:43:34;14.75;;;5.63;;
46767;SDS011;69007;48.978;18.066;2023-10-13T02:46:01;10.55;;;5.80;;
46767;SDS011;69007;48.978;18.066;2023-10-13T02:48:27;15.50;;;5.00;;
46767;SDS011;69007;48.978;18.066;2023-10-13T02:51:05;15.88;;;5.57;;
46767;SDS011;69007;48.978;18.066;2023-10-13T02:53:43;11.23;;;5.15;;
46767;SDS011;69007;48.978;18.066;2023-10-13T02:56:18;10.32;;;4.97;;
46767;SDS011;69007;48.978;18.066;2023-10-13T02:58:51;13.23;;;6.05;;
46767;SDS011;69007;48.978;18.066;2023-10-13T03:01:22;11.30;;;5.97;;
46767;SDS011;69007;48.978;18.066;2023-10-13T03:03:52;11.93;;;6.05;;
46767;SDS011;69007;48.978;18.066;2023-10-13T03:06:20;14.68;;;5.30;;
46767;SDS011;69007;48.978;18.066;2023-10-13T03:08:58;12.05;;;5.72;;
46767;SDS011;69007;48.978;18.066;2023-10-13T03:14:19;15.85;;;5.63;;
46767;SDS011;69007;48.978;18.066;2023-10-13T03:16:50;12.82;;;5.88;;
46767;SDS011;69007;48.978;18.066;2023-10-13T03:19:20;13.95;;;5.70;;
46767;SDS011;69007;48.978;18.066;2023-10-13T03:21:46;11.45;;;6.35;;
46767;SDS011;69007;48.978;18.066;2023-10-13T03:24:22;18.35;;;7.25;;
46767;SDS011;69007;48.978;18.066;2023-10-13T03:26:58;16.40;;;6.05;;
46767;SDS011;69007;48.978;18.066;2023-10-13T03:29:37;16.60;;;5.72;;
46767;SDS011;69007;48.978;18.066;2023-10-13T03:32:12;11.68;;;6.25;;
46767;SDS011;69007;48.978;18.066;2023-10-13T03:34:43;9.85;;;5.38;;
46767;SDS011;69007;48.978;18.066;2023-10-13T03:37:35;17.92;;;7.80;;
46767;SDS011;69007;48.978;18.066;2023-10-13T03:42:32;9.82;;;5.40;;
46767;SDS011;69007;48.978;18.066;2023-10-13T03:44:57;12.00;;;5.55;;
46767;SDS011;69007;48.978;18.066;2023-10-13T03:47:22;20.67;;;6.78;;
46767;SDS011;69007;48.978;18.066;2023-10-13T03:49:57;17.30;;;6.40;;
46767;SDS011;69007;48.978;18.066;2023-10-13T03:52:40;14.05;;;6.68;;
46767;SDS011;69007;48.978;18.066;2023-10-13T03:55:06;15.88;;;6.38;;
46767;SDS011;69007;48.978;18.066;2023-10-13T03:57:32;21.15;;;7.63;;
46767;SDS011;69007;48.978;18.066;2023-10-13T04:00:04;9.60;;;5.82;;
46767;SDS011;69007;48.978;18.066;2023-10-13T04:02:46;11.02;;;5.95;;
46767;SDS011;69007;48.978;18.066;2023-10-13T04:05:17;15.25;;;6.10;;
46767;SDS011;69007;48.978;18.066;2023-10-13T04:08:03;18.10;;;6.93;;
46767;SDS011;69007;48.978;18.066;2023-10-13T04:10:47;16.75;;;6.45;;
46767;SDS011;69007;48.978;18.066;2023-10-13T04:13:19;16.02;;;9.27;;
46767;SDS011;69007;48.978;18.066;2023-10-13T04:15:45;18.27;;;9.60;;
46767;SDS011;69007;48.978;18.066;2023-10-13T04:18:29;21.73;;;8.25;;
46767;SDS011;69007;48.978;18.066;2023-10-13T04:21:14;12.60;;;6.05;;
46767;SDS011;69007;48.978;18.066;2023-10-13T04:24:09;17.00;;;5.93;;
46767;SDS011;69007;48.978;18.066;2023-10-13T04:26:43;15.15;;;7.95;;
46767;SDS011;69007;48.978;18.066;2023-10-13T04:29:31;10.68;;;6.75;;
46767;SDS011;69007;48.978;18.066;2023-10-13T04:32:15;11.55;;;7.25;;
46767;SDS011;69007;48.978;18.066;2023-10-13T04:34:53;19.55;;;7.15;;
46767;SDS011;69007;48.978;18.066;2023-10-13T04:37:48;15.48;;;7.00;;
46767;SDS011;69007;48.978;18.066;2023-10-13T04:40:14;16.67;;;6.93;;
46767;SDS011;69007;48.978;18.066;2023-10-13T04:42:39;19.60;;;8.70;;
46767;SDS011;69007;48.978;18.066;2023-10-13T04:45:15;16.63;;;7.07;;
46767;SDS011;69007;48.978;18.066;2023-10-13T04:47:57;22.55;;;7.47;;
46767;SDS011;69007;48.978;18.066;2023-10-13T04:50:59;15.80;;;7.68;;
46767;SDS011;69007;48.978;18.066;2023-10-13T04:54:04;12.88;;;6.90;;
46767;SDS011;69007;48.978;18.066;2023-10-13T04:56:37;10.82;;;7.85;;
46767;SDS011;69007;48.978;18.066;2023-10-13T04:59:38;13.40;;;8.57;;
46767;SDS011;69007;48.978;18.066;2023-10-13T05:02:23;14.10;;;7.72;;
46767;SDS011;69007;48.978;18.066;2023-10-13T05:05:01;11.60;;;6.82;;
46767;SDS011;69007;48.978;18.066;2023-10-13T05:10:31;18.17;;;6.47;;
46767;SDS011;69007;48.978;18.066;2023-10-13T05:13:15;8.98;;;5.97;;
46767;SDS011;69007;48.978;18.066;2023-10-13T05:15:59;29.05;;;7.50;;
46767;SDS011;69007;48.978;18.066;2023-10-13T05:18:44;14.88;;;7.43;;
46767;SDS011;69007;48.978;18.066;2023-10-13T05:21:28;14.38;;;7.30;;
46767;SDS011;69007;48.978;18.066;2023-10-13T05:24:12;10.70;;;6.70;;
46767;SDS011;69007;48.978;18.066;2023-10-13T05:26:56;15.02;;;7.10;;
46767;SDS011;69007;48.978;18.066;2023-10-13T05:29:40;15.80;;;6.93;;
46767;SDS011;69007;48.978;18.066;2023-10-13T05:32:25;16.20;;;10.25;;
46767;SDS011;69007;48.978;18.066;2023-10-13T05:35:09;21.83;;;11.77;;
46767;SDS011;69007;48.978;18.066;2023-10-13T05:37:53;20.00;;;8.40;;
46767;SDS011;69007;48.978;18.066;2023-10-13T05:40:37;12.95;;;7.88;;
46767;SDS011;69007;48.978;18.066;2023-10-13T05:43:21;13.93;;;8.38;;
46767;SDS011;69007;48.978;18.066;2023-10-13T05:46:05;16.25;;;7.35;;
46767;SDS011;69007;48.978;18.066;2023-10-13T05:49:06;15.00;;;8.75;;
46767;SDS011;69007;48.978;18.066;2023-10-13T05:51:35;15.40;;;9.13;;
46767;SDS011;69007;48.978;18.066;2023-10-13T05:54:01;13.68;;;8.90;;
46767;SDS011;69007;48.978;18.066;2023-10-13T05:59:43;29.75;;;10.77;;
46767;SDS011;69007;48.978;18.066;2023-10-13T06:02:27;18.73;;;8.68;;
46767;SDS011;69007;48.978;18.066;2023-10-13T06:05:12;13.23;;;8.48;;
46767;SDS011;69007;48.978;18.066;2023-10-13T06:07:56;21.85;;;10.18;;
46767;SDS011;69007;48.978;18.066;2023-10-13T06:10:41;17.67;;;9.73;;
46767;SDS011;69007;48.978;18.066;2023-10-13T06:13:26;21.60;;;10.98;;
46767;SDS011;69007;48.978;18.066;2023-10-13T06:16:15;17.43;;;11.90;;
46767;SDS011;69007;48.978;18.066;2023-10-13T06:19:00;24.98;;;12.15;;
46767;SDS011;69007;48.978;18.066;2023-10-13T06:21:44;25.48;;;12.50;;
46767;SDS011;69007;48.978;18.066;2023-10-13T06:24:29;29.70;;;12.68;;
46767;SDS011;69007;48.978;18.066;2023-10-13T06:27:14;26.50;;;12.57;;
46767;SDS011;69007;48.978;18.066;2023-10-13T06:30:00;17.92;;;11.73;;
46767;SDS011;69007;48.978;18.066;2023-10-13T06:32:26;20.08;;;11.45;;
46767;SDS011;69007;48.978;18.066;2023-10-13T06:34:52;22.50;;;12.75;;
46767;SDS011;69007;48.978;18.066;2023-10-13T06:37:24;21.63;;;13.38;;
46767;SDS011;69007;48.978;18.066;2023-10-13T06:39:50;27.25;;;13.07;;
46767;SDS011;69007;48.978;18.066;2023-10-13T06:42:16;26.75;;;13.15;;
46767;SDS011;69007;48.978;18.066;2023-10-13T06:44:44;25.60;;;12.57;;
46767;SDS011;69007;48.978;18.066;2023-10-13T06:47:11;22.45;;;12.85;;
46767;SDS011;69007;48.978;18.066;2023-10-13T06:49:37;24.67;;;13.90;;
46767;SDS011;69007;48.978;18.066;2023-10-13T06:52:08;30.13;;;14.52;;
46767;SDS011;69007;48.978;18.066;2023-10-13T06:54:36;28.75;;;14.38;;
46767;SDS011;69007;48.978;18.066;2023-10-13T06:57:04;24.02;;;13.68;;
46767;SDS011;69007;48.978;18.066;2023-10-13T06:59:32;25.27;;;14.35;;
46767;SDS011;69007;48.978;18.066;2023-10-13T07:02:01;21.55;;;12.60;;
46767;SDS011;69007;48.978;18.066;2023-10-13T07:04:31;32.95;;;11.35;;
46767;SDS011;69007;48.978;18.066;2023-10-13T07:06:57;19.50;;;11.18;;
46767;SDS011;69007;48.978;18.066;2023-10-13T07:09:25;21.73;;;11.88;;
46767;SDS011;69007;48.978;18.066;2023-10-13T07:12:00;25.73;;;12.52;;
46767;SDS011;69007;48.978;18.066;2023-10-13T07:14:27;18.67;;;11.25;;
46767;SDS011;69007;48.978;18.066;2023-10-13T07:16:56;18.63;;;10.18;;
46767;SDS011;69007;48.978;18.066;2023-10-13T07:19:26;15.75;;;10.10;;
46767;SDS011;69007;48.978;18.066;2023-10-13T07:21:58;14.40;;;9.30;;
46767;SDS011;69007;48.978;18.066;2023-10-13T07:24:28;18.10;;;11.15;;
46767;SDS011;69007;48.978;18.066;2023-10-13T07:27:00;12.63;;;8.77;;
46767;SDS011;69007;48.978;18.066;2023-10-13T07:29:30;15.35;;;9.52;;
46767;SDS011;69007;48.978;18.066;2023-10-13T07:31:55;16.75;;;9.70;;
46767;SDS011;69007;48.978;18.066;2023-10-13T07:34:21;16.25;;;9.57;;
46767;SDS011;69007;48.978;18.066;2023-10-13T07:36:56;15.23;;;9.65;;
46767;SDS011;69007;48.978;18.066;2023-10-13T07:39:25;19.55;;;10.25;;
46767;SDS011;69007;48.978;18.066;2023-10-13T07:41:58;17.30;;;10.07;;
46767;SDS011;69007;48.978;18.066;2023-10-13T07:44:44;15.15;;;9.75;;
46767;SDS011;69007;48.978;18.066;2023-10-13T07:47:13;16.00;;;9.80;;
46767;SDS011;69007;48.978;18.066;2023-10-13T07:49:39;15.32;;;10.18;;
46767;SDS011;69007;48.978;18.066;2023-10-13T07:52:09;21.75;;;10.32;;
46767;SDS011;69007;48.978;18.066;2023-10-13T07:54:45;17.23;;;10.20;;
46767;SDS011;69007;48.978;18.066;2023-10-13T07:57:34;21.80;;;9.85;;
46767;SDS011;69007;48.978;18.066;2023-10-13T08:00:00;15.02;;;9.52;;
46767;SDS011;69007;48.978;18.066;2023-10-13T08:02:36;18.92;;;9.70;;
46767;SDS011;69007;48.978;18.066;2023-10-13T08:05:14;17.88;;;9.55;;
46767;SDS011;69007;48.978;18.066;2023-10-13T08:07:49;14.02;;;8.82;;
46767;SDS011;69007;48.978;18.066;2023-10-13T08:10:15;16.25;;;8.85;;
46767;SDS011;69007;48.978;18.066;2023-10-13T08:12:42;17.75;;;9.32;;
46767;SDS011;69007;48.978;18.066;2023-10-13T08:15:09;15.32;;;9.25;;
46767;SDS011;69007;48.978;18.066;2023-10-13T08:17:46;18.58;;;9.02;;
46767;SDS011;69007;48.978;18.066;2023-10-13T08:20:12;15.98;;;7.43;;
46767;SDS011;69007;48.978;18.066;2023-10-13T08:22:38;14.98;;;7.13;;
46767;SDS011;69007;48.978;18.066;2023-10-13T08:25:04;14.82;;;8.75;;
46767;SDS011;69007;48.978;18.066;2023-10-13T08:28:05;20.15;;;8.65;;
46767;SDS011;69007;48.978;18.066;2023-10-13T08:30:50;14.63;;;7.05;;
46767;SDS011;69007;48.978;18.066;2023-10-13T08:33:17;11.85;;;6.78;;
46767;SDS011;69007;48.978;18.066;2023-10-13T08:35:43;15.35;;;6.50;;
46767;SDS011;69007;48.978;18.066;2023-10-13T08:38:19;17.48;;;7.05;;
46767;SDS011;69007;48.978;18.066;2023-10-13T08:40:53;8.45;;;6.10;;
46767;SDS011;69007;48.978;18.066;2023-10-13T08:43:42;17.10;;;7.13;;
46767;SDS011;69007;48.978;18.066;2023-10-13T08:46:10;19.90;;;7.38;;
46767;SDS011;69007;48.978;18.066;2023-10-13T08:48:52;13.80;;;6.50;;
46767;SDS011;69007;48.978;18.066;2023-10-13T08:51:30;10.43;;;6.70;;
46767;SDS011;69007;48.978;18.066;2023-10-13T08:54:08;13.80;;;7.18;;
46767;SDS011;69007;48.978;18.066;2023-10-13T08:56:58;19.85;;;7.57;;
46767;SDS011;69007;48.978;18.066;2023-10-13T08:59:30;9.45;;;6.40;;
46767;SDS011;69007;48.978;18.066;2023-10-13T09:02:05;15.65;;;7.72;;
46767;SDS011;69007;48.978;18.066;2023-10-13T09:04:43;12.32;;;8.18;;
46767;SDS011;69007;48.978;18.066;2023-10-13T09:07:12;15.07;;;8.63;;
46767;SDS011;69007;48.978;18.066;2023-10-13T09:09:50;16.38;;;8.45;;
46767;SDS011;69007;48.978;18.066;2023-10-13T09:12:26;14.10;;;8.13;;
46767;SDS011;69007;48.978;18.066;2023-10-13T09:14:58;20.90;;;7.68;;
46767;SDS011;69007;48.978;18.066;2023-10-13T09:17:31;13.82;;;7.32;;
46767;SDS011;69007;48.978;18.066;2023-10-13T09:20:06;11.30;;;7.10;;
46767;SDS011;69007;48.978;18.066;2023-10-13T09:22:51;24.38;;;7.80;;
46767;SDS011;69007;48.978;18.066;2023-10-13T09:25:40;15.65;;;8.02;;
46767;SDS011;69007;48.978;18.066;2023-10-13T09:28:29;10.32;;;6.60;;
46767;SDS011;69007;48.978;18.066;2023-10-13T09:30:56;15.45;;;6.65;;
46767;SDS011;69007;48.978;18.066;2023-10-13T09:35:57;13.15;;;7.07;;
46767;SDS011;69007;48.978;18.066;2023-10-13T09:38:29;18.13;;;7.10;;
46767;SDS011;69007;48.978;18.066;2023-10-13T09:40:57;11.02;;;6.97;;
46767;SDS011;69007;48.978;18.066;2023-10-13T09:43:27;14.57;;;6.80;;
46767;SDS011;69007;48.978;18.066;2023-10-13T09:45:58;12.23;;;7.47;;
46767;SDS011;69007;48.978;18.066;2023-10-13T09:48:31;22.27;;;7.70;;
46767;SDS011;69007;48.978;18.066;2023-10-13T09:51:04;14.15;;;6.80;;
46767;SDS011;69007;48.978;18.066;2023-10-13T09:53:35;13.25;;;6.80;;
46767;SDS011;69007;48.978;18.066;2023-10-13T09:56:11;15.80;;;7.60;;
46767;SDS011;69007;48.978;18.066;2023-10-13T09:58:56;15.27;;;7.20;;
46767;SDS011;69007;48.978;18.066;2023-10-13T10:01:33;13.25;;;7.13;;
46767;SDS011;69007;48.978;18.066;2023-10-13T10:04:09;12.50;;;6.72;;
46767;SDS011;69007;48.978;18.066;2023-10-13T10:06:51;15.52;;;6.70;;
46767;SDS011;69007;48.978;18.066;2023-10-13T10:09:26;11.32;;;6.60;;
46767;SDS011;69007;48.978;18.066;2023-10-13T10:15:06;9.77;;;7.00;;
46767;SDS011;69007;48.978;18.066;2023-10-13T10:17:55;15.82;;;6.30;;
46767;SDS011;69007;48.978;18.066;2023-10-13T10:20:34;11.32;;;5.68;;
46767;SDS011;69007;48.978;18.066;2023-10-13T10:23:07;11.48;;;6.40;;
46767;SDS011;69007;48.978;18.066;2023-10-13T10:25:39;12.65;;;6.70;;
46767;SDS011;69007;48.978;18.066;2023-10-13T10:28:09;9.13;;;6.30;;
46767;SDS011;69007;48.978;18.066;2023-10-13T10:30:40;11.30;;;6.47;;
46767;SDS011;69007;48.978;18.066;2023-10-13T10:33:07;13.73;;;5.88;;
46767;SDS011;69007;48.978;18.066;2023-10-13T10:35:44;12.70;;;6.10;;
46767;SDS011;69007;48.978;18.066;2023-10-13T10:38:16;15.82;;;6.97;;
46767;SDS011;69007;48.978;18.066;2023-10-13T10:40:59;15.55;;;6.85;;
46767;SDS011;69007;48.978;18.066;2023-10-13T10:43:38;18.05;;;6.38;;
46767;SDS011;69007;48.978;18.066;2023-10-13T10:48:38;12.13;;;6.47;;
46767;SDS011;69007;48.978;18.066;2023-10-13T10:51:08;15.05;;;6.88;;
46767;SDS011;69007;48.978;18.066;2023-10-13T10:53:46;11.63;;;5.35;;
46767;SDS011;69007;48.978;18.066;2023-10-13T10:56:14;14.23;;;6.53;;
46767;SDS011;69007;48.978;18.066;2023-10-13T10:58:59;11.40;;;6.45;;
46767;SDS011;69007;48.978;18.066;2023-10-13T11:01:25;12.57;;;6.05;;
46767;SDS011;69007;48.978;18.066;2023-10-13T11:06:32;11.32;;;6.50;;
46767;SDS011;69007;48.978;18.066;2023-10-13T11:11:46;14.52;;;6.80;;
46767;SDS011;69007;48.978;18.066;2023-10-13T11:14:21;14.23;;;7.28;;
46767;SDS011;69007;48.978;18.066;2023-10-13T11:16:50;17.05;;;7.35;;
46767;SDS011;69007;48.978;18.066;2023-10-13T11:19:38;23.35;;;8.95;;
46767;SDS011;69007;48.978;18.066;2023-10-13T11:25:04;13.43;;;7.43;;
46767;SDS011;69007;48.978;18.066;2023-10-13T11:27:38;10.43;;;6.45;;
46767;SDS011;69007;48.978;18.066;2023-10-13T11:30:13;17.40;;;7.13;;
46767;SDS011;69007;48.978;18.066;2023-10-13T11:32:40;13.25;;;6.15;;
46767;SDS011;69007;48.978;18.066;2023-10-13T11:35:08;13.48;;;7.22;;
46767;SDS011;69007;48.978;18.066;2023-10-13T11:37:57;13.07;;;6.18;;
46767;SDS011;69007;48.978;18.066;2023-10-13T11:40:31;11.57;;;6.35;;
46767;SDS011;69007;48.978;18.066;2023-10-13T11:43:17;14.52;;;7.95;;
46767;SDS011;69007;48.978;18.066;2023-10-13T11:45:47;9.65;;;6.20;;
46767;SDS011;69007;48.978;18.066;2023-10-13T11:48:31;15.88;;;7.35;;
46767;SDS011;69007;48.978;18.066;2023-10-13T11:51:04;14.25;;;6.35;;
46767;SDS011;69007;48.978;18.066;2023-10-13T11:53:32;23.27;;;7.18;;
46767;SDS011;69007;48.978;18.066;2023-10-13T11:56:01;12.35;;;6.70;;
46767;SDS011;69007;48.978;18.066;2023-10-13T11:58:34;15.27;;;6.05;;
46767;SDS011;69007;48.978;18.066;2023-10-13T12:01:00;11.55;;;6.60;;
46767;SDS011;69007;48.978;18.066;2023-10-13T12:03:41;13.30;;;6.20;;
46767;SDS011;69007;48.978;18.066;2023-10-13T12:06:39;13.48;;;6.65;;
46767;SDS011;69007;48.978;18.066;2023-10-13T12:09:06;10.80;;;7.15;;
46767;SDS011;69007;48.978;18.066;2023-10-13T12:11:48;17.00;;;7.43;;
46767;SDS011;69007;48.978;18.066;2023-10-13T12:14:19;11.27;;;6.57;;
46767;SDS011;69007;48.978;18.066;2023-10-13T12:16:49;16.80;;;7.25;;
46767;SDS011;69007;48.978;18.066;2023-10-13T12:19:24;10.75;;;6.82;;
46767;SDS011;69007;48.978;18.066;2023-10-13T12:21:55;17.15;;;7.15;;
46767;SDS011;69007;48.978;18.066;2023-10-13T12:24:22;11.52;;;6.70;;
46767;SDS011;69007;48.978;18.066;2023-10-13T12:27:00;14.55;;;6.13;;
46767;SDS011;69007;48.978;18.066;2023-10-13T12:29:26;13.07;;;6.40;;
46767;SDS011;69007;48.978;18.066;2023-10-13T12:31:55;12.13;;;6.95;;
46767;SDS011;69007;48.978;18.066;2023-10-13T12:34:35;13.20;;;6.05;;
46767;SDS011;69007;48.978;18.066;2023-10-13T12:37:19;11.38;;;6.53;;
46767;SDS011;69007;48.978;18.066;2023-10-13T12:42:47;12.70;;;5.97;;
46767;SDS011;69007;48.978;18.066;2023-10-13T12:45:31;9.52;;;6.38;;
46767;SDS011;69007;48.978;18.066;2023-10-13T12:48:15;18.48;;;6.50;;
46767;SDS011;69007;48.978;18.066;2023-10-13T12:51:02;17.85;;;7.13;;
46767;SDS011;69007;48.978;18.066;2023-10-13T12:53:50;11.23;;;6.43;;
46767;SDS011;69007;48.978;18.066;2023-10-13T12:56:17;14.43;;;6.53;;
46767;SDS011;69007;48.978;18.066;2023-10-13T12:58:50;12.30;;;6.53;;
46767;SDS011;69007;48.978;18.066;2023-10-13T13:01:22;15.73;;;6.15;;
46767;SDS011;69007;48.978;18.066;2023-10-13T13:03:50;14.32;;;6.90;;
46767;SDS011;69007;48.978;18.066;2023-10-13T13:06:22;11.20;;;6.57;;
46767;SDS011;69007;48.978;18.066;2023-10-13T13:08:52;13.77;;;6.25;;
46767;SDS011;69007;48.978;18.066;2023-10-13T13:11:18;13.82;;;5.97;;
46767;SDS011;69007;48.978;18.066;2023-10-13T13:13:43;16.08;;;6.90;;
46767;SDS011;69007;48.978;18.066;2023-10-13T13:16:11;12.52;;;6.10;;
46767;SDS011;69007;48.978;18.066;2023-10-13T13:18:37;9.32;;;6.00;;
46767;SDS011;69007;48.978;18.066;2023-10-13T13:21:02;11.40;;;6.30;;
46767;SDS011;69007;48.978;18.066;2023-10-13T13:23:31;15.95;;;5.82;;
46767;SDS011;69007;48.978;18.066;2023-10-13T13:25:56;13.48;;;5.35;;
46767;SDS011;69007;48.978;18.066;2023-10-13T13:28:22;14.65;;;5.65;;
46767;SDS011;69007;48.978;18.066;2023-10-13T13:30:49;14.13;;;5.70;;
46767;SDS011;69007;48.978;18.066;2023-10-13T13:33:16;11.07;;;5.20;;
46767;SDS011;69007;48.978;18.066;2023-10-13T13:35:48;9.70;;;5.03;;
46767;SDS011;69007;48.978;18.066;2023-10-13T13:38:14;10.07;;;5.57;;
46767;SDS011;69007;48.978;18.066;2023-10-13T13:40:47;10.68;;;5.38;;
46767;SDS011;69007;48.978;18.066;2023-10-13T13:43:19;13.43;;;5.40;;
46767;SDS011;69007;48.978;18.066;2023-10-13T13:46:04;8.95;;;5.28;;
46767;SDS011;69007;48.978;18.066;2023-10-13T13:48:34;12.40;;;5.28;;
46767;SDS011;69007;48.978;18.066;2023-10-13T13:51:06;11.15;;;5.10;;
46767;SDS011;69007;48.978;18.066;2023-10-13T13:53:44;11.88;;;5.72;;
46767;SDS011;69007;48.978;18.066;2023-10-13T13:56:12;15.18;;;5.45;;
46767;SDS011;69007;48.978;18.066;2023-10-13T13:58:41;14.93;;;6.45;;
46767;SDS011;69007;48.978;18.066;2023-10-13T14:01:10;8.20;;;5.07;;
46767;SDS011;69007;48.978;18.066;2023-10-13T14:03:46;16.58;;;5.28;;
46767;SDS011;69007;48.978;18.066;2023-10-13T14:06:24;11.20;;;6.40;;
46767;SDS011;69007;48.978;18.066;2023-10-13T14:11:16;13.20;;;6.47;;
46767;SDS011;69007;48.978;18.066;2023-10-13T14:14:01;10.50;;;5.45;;
46767;SDS011;69007;48.978;18.066;2023-10-13T14:16:29;13.65;;;5.43;;
46767;SDS011;69007;48.978;18.066;2023-10-13T14:18:58;12.00;;;5.15;;
46767;SDS011;69007;48.978;18.066;2023-10-13T14:21:26;11.50;;;5.95;;
46767;SDS011;69007;48.978;18.066;2023-10-13T14:23:52;10.18;;;5.22;;
46767;SDS011;69007;48.978;18.066;2023-10-13T14:26:21;18.73;;;5.88;;
46767;SDS011;69007;48.978;18.066;2023-10-13T14:28:47;6.38;;;4.70;;
46767;SDS011;69007;48.978;18.066;2023-10-13T14:31:45;25.05;;;9.00;;
46767;SDS011;69007;48.978;18.066;2023-10-13T14:34:13;9.85;;;5.65;;
46767;SDS011;69007;48.978;18.066;2023-10-13T14:36:39;11.60;;;5.75;;
46767;SDS011;69007;48.978;18.066;2023-10-13T14:39:05;12.55;;;5.68;;
46767;SDS011;69007;48.978;18.066;2023-10-13T14:41:37;14.52;;;5.72;;
46767;SDS011;69007;48.978;18.066;2023-10-13T14:44:03;12.10;;;5.43;;
46767;SDS011;69007;48.978;18.066;2023-10-13T14:46:31;10.68;;;5.63;;
46767;SDS011;69007;48.978;18.066;2023-10-13T14:49:01;14.45;;;5.95;;
46767;SDS011;69007;48.978;18.066;2023-10-13T14:51:27;11.77;;;5.75;;
46767;SDS011;69007;48.978;18.066;2023-10-13T14:53:54;15.38;;;6.00;;
46767;SDS011;69007;48.978;18.066;2023-10-13T14:56:21;15.10;;;6.75;;
46767;SDS011;69007;48.978;18.066;2023-10-13T14:58:50;9.05;;;5.97;;
46767;SDS011;69007;48.978;18.066;2023-10-13T15:01:16;8.18;;;5.40;;
46767;SDS011;69007;48.978;18.066;2023-10-13T15:03:44;14.90;;;7.57;;
46767;SDS011;69007;48.978;18.066;2023-10-13T15:06:19;12.85;;;6.22;;
46767;SDS011;69007;48.978;18.066;2023-10-13T15:08:59;13.95;;;5.97;;
46767;SDS011;69007;48.978;18.066;2023-10-13T15:11:25;12.85;;;5.85;;
46767;SDS011;69007;48.978;18.066;2023-10-13T15:13:52;13.35;;;7.55;;
46767;SDS011;69007;48.978;18.066;2023-10-13T15:16:19;13.32;;;6.15;;
46767;SDS011;69007;48.978;18.066;2023-10-13T15:18:47;16.65;;;6.65;;
46767;SDS011;69007;48.978;18.066;2023-10-13T15:21:24;14.73;;;5.78;;
46767;SDS011;69007;48.978;18.066;2023-10-13T15:24:03;16.52;;;6.55;;
46767;SDS011;69007;48.978;18.066;2023-10-13T15:26:29;16.83;;;6.05;;
46767;SDS011;69007;48.978;18.066;2023-10-13T15:28:55;13.68;;;6.63;;
46767;SDS011;69007;48.978;18.066;2023-10-13T15:31:22;14.65;;;6.10;;
46767;SDS011;69007;48.978;18.066;2023-10-13T15:33:52;14.90;;;6.40;;